createdAt,value
2022-10-20T00:00:23.317Z,13.90
2022-10-20T00:01:19.138Z,12.00
2022-10-20T00:02:14.351Z,11.10
2022-10-20T00:03:09.566Z,12.90
2022-10-20T00:04:04.815Z,12.40
2022-10-20T00:05:00.010Z,12.70
2022-10-20T00:05:55.373Z,11.70
2022-10-20T00:06:50.625Z,11.50
2022-10-20T00:07:45.885Z,12.60
2022-10-20T00:08:41.756Z,11.70
2022-10-20T00:09:36.977Z,11.70
2022-10-20T00:10:32.353Z,11.40
2022-10-20T00:11:27.455Z,12.50
2022-10-20T00:12:22.525Z,11.10
2022-10-20T00:13:17.631Z,14.70
2022-10-20T00:14:12.723Z,12.10
2022-10-20T00:15:07.778Z,11.80
2022-10-20T00:16:02.900Z,14.10
2022-10-20T00:16:57.967Z,11.60
2022-10-20T00:17:53.115Z,12.30
2022-10-20T00:18:48.310Z,11.50
2022-10-20T00:19:43.370Z,12.90
2022-10-20T00:20:38.478Z,12.80
2022-10-20T00:21:33.580Z,11.80
2022-10-20T00:22:28.698Z,14.40
2022-10-20T00:23:23.707Z,15.10
2022-10-20T00:24:18.788Z,11.60
2022-10-20T00:25:13.882Z,12.10
2022-10-20T00:26:08.958Z,13.20
2022-10-20T00:27:04.062Z,14.10
2022-10-20T00:27:59.169Z,14.20
2022-10-20T00:28:54.233Z,14.70
2022-10-20T00:29:49.326Z,13.90
2022-10-20T00:30:44.407Z,13.50
2022-10-20T00:31:39.499Z,13.50
2022-10-20T00:32:34.723Z,12.80
2022-10-20T00:33:29.563Z,12.10
2022-10-20T00:34:24.814Z,14.30
2022-10-20T00:35:20.025Z,11.50
2022-10-20T00:36:15.233Z,12.50
2022-10-20T00:37:10.603Z,13.80
2022-10-20T00:38:05.823Z,10.80
2022-10-20T00:39:01.015Z,14.00
2022-10-20T00:39:56.282Z,11.80
2022-10-20T00:40:51.632Z,10.70
2022-10-20T00:41:47.700Z,11.40
2022-10-20T00:42:42.801Z,13.20
2022-10-20T00:43:38.030Z,12.00
2022-10-20T00:44:33.245Z,12.30
2022-10-20T00:45:28.570Z,12.30
2022-10-20T00:46:23.913Z,12.10
2022-10-20T00:47:19.179Z,15.50
2022-10-20T00:48:14.355Z,12.30
2022-10-20T00:49:09.824Z,17.00
2022-10-20T00:50:05.048Z,14.60
2022-10-20T00:51:00.270Z,14.00
2022-10-20T00:51:55.512Z,16.10
2022-10-20T00:52:50.727Z,14.20
2022-10-20T00:53:46.076Z,14.20
2022-10-20T00:54:41.304Z,12.90
2022-10-20T00:55:36.475Z,15.00
2022-10-20T00:56:31.707Z,16.40
2022-10-20T00:57:27.191Z,16.10
2022-10-20T00:58:22.376Z,12.80
2022-10-20T00:59:17.606Z,14.00
2022-10-20T01:00:12.812Z,14.20
2022-10-20T01:01:08.014Z,13.60
2022-10-20T01:02:03.425Z,16.40
2022-10-20T01:02:58.664Z,16.50
2022-10-20T01:03:53.900Z,13.20
2022-10-20T01:04:49.210Z,16.30
2022-10-20T01:05:44.548Z,19.90
2022-10-20T01:06:39.798Z,13.50
2022-10-20T01:07:35.319Z,15.50
2022-10-20T01:08:30.217Z,14.70
2022-10-20T01:09:25.290Z,14.00
2022-10-20T01:10:20.350Z,15.20
2022-10-20T01:11:15.420Z,15.50
2022-10-20T01:12:10.644Z,14.70
2022-10-20T01:13:05.732Z,14.10
2022-10-20T01:14:00.869Z,13.30
2022-10-20T01:14:55.821Z,16.00
2022-10-20T01:15:51.476Z,15.10
2022-10-20T01:16:46.530Z,16.90
2022-10-20T01:17:41.617Z,15.70
2022-10-20T01:18:36.688Z,15.10
2022-10-20T01:19:31.880Z,14.40
2022-10-20T01:20:26.829Z,15.50
2022-10-20T01:21:21.877Z,15.90
2022-10-20T01:22:16.938Z,15.80
2022-10-20T01:23:12.061Z,15.70
2022-10-20T01:24:07.125Z,19.20
2022-10-20T01:25:02.360Z,15.00
2022-10-20T01:25:57.555Z,16.90
2022-10-20T01:26:52.877Z,19.60
2022-10-20T01:27:48.083Z,14.50
2022-10-20T01:28:43.272Z,13.40
2022-10-20T01:29:38.662Z,16.80
2022-10-20T01:30:33.873Z,17.60
2022-10-20T01:31:29.319Z,15.70
2022-10-20T01:32:24.673Z,15.90
2022-10-20T01:33:19.798Z,17.90
2022-10-20T01:34:14.972Z,17.30
2022-10-20T01:35:10.245Z,16.50
2022-10-20T01:36:05.474Z,16.00
2022-10-20T01:37:00.793Z,17.40
2022-10-20T01:37:56.410Z,16.80
2022-10-20T01:38:51.295Z,16.10
2022-10-20T01:39:46.503Z,17.30
2022-10-20T01:40:41.728Z,17.50
2022-10-20T01:41:36.960Z,20.40
2022-10-20T01:42:32.493Z,18.50
2022-10-20T01:43:27.579Z,17.80
2022-10-20T01:44:22.780Z,16.90
2022-10-20T01:45:18.043Z,16.80
2022-10-20T01:46:13.397Z,17.80
2022-10-20T01:47:08.609Z,18.90
2022-10-20T01:48:03.868Z,19.00
2022-10-20T01:48:59.079Z,18.30
2022-10-20T01:49:54.298Z,16.80
2022-10-20T01:50:49.649Z,19.20
2022-10-20T01:51:44.869Z,20.60
2022-10-20T01:52:40.135Z,18.00
2022-10-20T01:53:35.468Z,19.90
2022-10-20T01:54:30.819Z,21.10
2022-10-20T01:55:25.967Z,18.80
2022-10-20T01:56:21.197Z,20.00
2022-10-20T01:57:16.445Z,19.30
2022-10-20T01:58:11.775Z,19.20
2022-10-20T01:59:07.265Z,20.10
2022-10-20T02:00:02.382Z,22.30
2022-10-20T02:01:52.798Z,21.40
2022-10-20T02:02:47.983Z,25.80
2022-10-20T02:03:43.311Z,20.40
2022-10-20T02:04:38.538Z,21.80
2022-10-20T02:05:33.761Z,20.20
2022-10-20T02:06:29.163Z,19.60
2022-10-20T02:07:24.251Z,20.80
2022-10-20T02:08:19.471Z,24.20
2022-10-20T02:09:14.730Z,20.70
2022-10-20T02:10:09.981Z,20.50
2022-10-20T02:11:05.366Z,20.90
2022-10-20T02:12:00.450Z,22.50
2022-10-20T02:12:55.659Z,23.40
2022-10-20T02:13:50.764Z,19.40
2022-10-20T02:14:45.831Z,23.90
2022-10-20T02:15:40.959Z,25.40
2022-10-20T02:16:36.059Z,25.30
2022-10-20T02:17:31.281Z,20.80
2022-10-20T02:18:26.366Z,26.00
2022-10-20T02:19:21.590Z,23.40
2022-10-20T02:20:16.666Z,24.00
2022-10-20T02:21:11.764Z,24.50
2022-10-20T02:22:06.849Z,27.90
2022-10-20T02:23:01.965Z,24.40
2022-10-20T02:23:57.030Z,23.40
2022-10-20T02:24:52.153Z,28.60
2022-10-20T02:25:47.149Z,23.30
2022-10-20T02:26:42.191Z,21.10
2022-10-20T02:27:37.300Z,20.80
2022-10-20T02:28:32.394Z,24.90
2022-10-20T02:29:27.501Z,22.40
2022-10-20T02:30:22.498Z,24.50
2022-10-20T02:31:17.727Z,27.30
2022-10-20T02:32:12.924Z,25.20
2022-10-20T02:33:08.153Z,27.10
2022-10-20T02:34:03.393Z,26.30
2022-10-20T02:35:02.145Z,28.50
2022-10-20T02:35:54.038Z,26.90
2022-10-20T02:36:49.231Z,30.80
2022-10-20T02:37:44.482Z,32.20
2022-10-20T02:38:40.086Z,30.60
2022-10-20T02:39:35.041Z,29.50
2022-10-20T02:40:30.303Z,32.80
2022-10-20T02:41:25.513Z,36.50
2022-10-20T02:42:20.841Z,32.50
2022-10-20T02:43:16.068Z,33.60
2022-10-20T02:44:11.310Z,35.80
2022-10-20T02:45:06.667Z,37.90
2022-10-20T02:46:01.866Z,36.40
2022-10-20T02:46:58.316Z,36.30
2022-10-20T02:47:53.676Z,35.30
2022-10-20T02:48:48.916Z,32.90
2022-10-20T02:49:44.115Z,31.00
2022-10-20T02:50:39.349Z,34.50
2022-10-20T02:51:34.596Z,37.80
2022-10-20T02:52:29.794Z,38.00
2022-10-20T02:53:25.045Z,38.00
2022-10-20T02:54:20.246Z,34.40
2022-10-20T02:55:15.407Z,37.20
2022-10-20T02:56:10.363Z,33.10
2022-10-20T02:57:05.445Z,41.40
2022-10-20T02:58:00.553Z,39.70
2022-10-20T02:58:55.614Z,35.50
2022-10-20T02:59:50.695Z,35.80
2022-10-20T03:00:45.814Z,40.50
2022-10-20T03:01:40.923Z,38.60
2022-10-20T03:02:35.950Z,34.00
2022-10-20T03:03:31.074Z,38.20
2022-10-20T03:05:21.242Z,36.20
2022-10-20T03:06:16.310Z,40.90
2022-10-20T03:07:11.310Z,37.60
2022-10-20T03:08:06.370Z,41.00
2022-10-20T03:09:01.389Z,39.80
2022-10-20T03:09:56.389Z,43.60
2022-10-20T03:10:51.428Z,41.00
2022-10-20T03:11:46.487Z,38.30
2022-10-20T03:12:41.578Z,36.60
2022-10-20T03:13:36.627Z,39.10
2022-10-20T03:14:31.707Z,40.80
2022-10-20T03:15:26.752Z,38.00
2022-10-20T03:16:21.907Z,36.70
2022-10-20T03:17:16.938Z,44.40
2022-10-20T03:18:11.966Z,39.80
2022-10-20T03:19:11.310Z,36.60
2022-10-20T03:20:02.774Z,42.50
2022-10-20T03:20:58.636Z,41.70
2022-10-20T03:21:53.789Z,47.50
2022-10-20T03:22:49.076Z,44.10
2022-10-20T03:23:44.078Z,51.90
2022-10-20T03:24:39.246Z,40.40
2022-10-20T03:25:34.283Z,42.60
2022-10-20T03:26:29.544Z,41.40
2022-10-20T03:27:24.462Z,47.50
2022-10-20T03:28:19.478Z,45.80
2022-10-20T03:29:14.503Z,43.30
2022-10-20T03:30:09.504Z,45.40
2022-10-20T03:31:04.503Z,41.60
2022-10-20T03:31:59.557Z,37.40
2022-10-20T03:32:54.602Z,40.90
2022-10-20T03:33:49.690Z,39.20
2022-10-20T03:34:44.691Z,41.70
2022-10-20T03:35:39.755Z,41.50
2022-10-20T03:36:34.819Z,45.00
2022-10-20T03:37:29.859Z,43.70
2022-10-20T03:38:25.019Z,46.50
2022-10-20T03:39:20.076Z,49.40
2022-10-20T03:40:15.158Z,50.40
2022-10-20T03:41:10.182Z,50.10
2022-10-20T03:42:07.641Z,46.70
2022-10-20T03:43:02.666Z,43.60
2022-10-20T03:43:57.732Z,38.30
2022-10-20T03:44:52.819Z,44.20
2022-10-20T03:45:48.026Z,44.60
2022-10-20T03:46:42.923Z,41.80
2022-10-20T03:47:37.951Z,40.20
2022-10-20T03:48:32.999Z,42.30
2022-10-20T03:49:28.106Z,41.10
2022-10-20T03:50:23.213Z,45.40
2022-10-20T03:51:18.217Z,39.70
2022-10-20T03:52:13.306Z,44.00
2022-10-20T03:53:08.712Z,40.80
2022-10-20T03:54:03.905Z,42.90
2022-10-20T03:54:59.411Z,40.20
2022-10-20T03:55:55.261Z,38.50
2022-10-20T03:56:50.483Z,46.10
2022-10-20T03:57:46.290Z,41.70
2022-10-20T03:58:41.541Z,41.10
2022-10-20T03:59:36.926Z,41.50
2022-10-20T04:00:32.601Z,46.20
2022-10-20T04:01:27.880Z,45.70
2022-10-20T04:02:23.149Z,37.20
2022-10-20T04:03:19.475Z,39.60
2022-10-20T04:04:14.721Z,40.20
2022-10-20T04:05:10.512Z,37.30
2022-10-20T04:06:05.729Z,38.60
2022-10-20T04:07:00.960Z,40.50
2022-10-20T04:07:56.781Z,40.40
2022-10-20T04:08:52.099Z,36.90
2022-10-20T04:09:47.875Z,36.80
2022-10-20T04:10:43.107Z,34.80
2022-10-20T04:11:38.490Z,38.70
2022-10-20T04:12:34.447Z,40.90
2022-10-20T04:13:29.657Z,40.00
2022-10-20T04:14:24.886Z,41.20
2022-10-20T04:15:21.358Z,40.60
2022-10-20T04:16:16.738Z,34.40
2022-10-20T04:17:12.528Z,40.10
2022-10-20T04:18:07.776Z,40.80
2022-10-20T04:19:03.668Z,36.30
2022-10-20T04:19:58.790Z,37.10
2022-10-20T04:20:54.023Z,38.70
2022-10-20T04:21:49.923Z,43.50
2022-10-20T04:22:45.039Z,34.80
2022-10-20T04:23:40.376Z,39.60
2022-10-20T04:24:36.024Z,36.00
2022-10-20T04:25:31.371Z,41.10
2022-10-20T04:26:26.713Z,39.80
2022-10-20T04:27:22.903Z,38.30
2022-10-20T04:28:18.291Z,37.50
2022-10-20T04:29:14.141Z,41.00
2022-10-20T04:30:09.398Z,42.90
2022-10-20T04:31:04.874Z,43.90
2022-10-20T04:31:59.988Z,46.90
2022-10-20T04:32:56.421Z,47.50
2022-10-20T04:33:51.587Z,43.40
2022-10-20T04:34:46.960Z,40.60
2022-10-20T04:35:42.837Z,44.80
2022-10-20T04:36:38.093Z,41.50
2022-10-20T04:37:33.848Z,39.20
2022-10-20T04:38:29.835Z,42.00
2022-10-20T04:39:25.104Z,44.10
2022-10-20T04:40:20.905Z,39.20
2022-10-20T04:41:16.115Z,43.00
2022-10-20T04:42:11.633Z,41.10
2022-10-20T04:43:07.335Z,39.00
2022-10-20T04:44:02.610Z,43.30
2022-10-20T04:45:53.674Z,42.50
2022-10-20T04:46:49.064Z,38.90
2022-10-20T04:47:44.743Z,39.00
2022-10-20T04:48:40.024Z,36.60
2022-10-20T04:49:35.281Z,42.50
2022-10-20T04:50:30.543Z,42.60
2022-10-20T04:51:25.936Z,40.30
2022-10-20T04:52:21.030Z,39.70
2022-10-20T04:53:16.402Z,42.70
2022-10-20T04:54:12.104Z,41.60
2022-10-20T04:55:07.459Z,45.80
2022-10-20T04:56:02.672Z,39.00
2022-10-20T04:56:58.627Z,38.10
2022-10-20T04:57:53.849Z,44.70
2022-10-20T04:58:49.360Z,44.00
2022-10-20T04:59:44.469Z,38.40
2022-10-20T05:00:39.571Z,42.30
2022-10-20T05:01:34.593Z,43.20
2022-10-20T05:02:29.695Z,45.60
2022-10-20T05:03:24.784Z,45.30
2022-10-20T05:04:19.810Z,42.30
2022-10-20T05:05:14.878Z,43.20
2022-10-20T05:06:10.132Z,37.80
2022-10-20T05:07:05.388Z,40.30
2022-10-20T05:08:00.238Z,43.90
2022-10-20T05:08:55.447Z,40.00
2022-10-20T05:09:50.416Z,39.00
2022-10-20T05:10:45.517Z,46.70
2022-10-20T05:11:40.564Z,47.10
2022-10-20T05:12:38.542Z,47.40
2022-10-20T05:13:33.335Z,43.10
2022-10-20T05:14:28.435Z,43.80
2022-10-20T05:15:23.514Z,47.70
2022-10-20T05:16:18.743Z,50.20
2022-10-20T05:17:13.872Z,48.30
2022-10-20T05:18:08.958Z,45.50
2022-10-20T05:19:04.078Z,41.00
2022-10-20T05:19:59.276Z,42.50
2022-10-20T05:21:08.391Z,41.60
2022-10-20T05:21:50.234Z,36.80
2022-10-20T05:22:44.271Z,45.90
2022-10-20T05:23:39.366Z,44.20
2022-10-20T05:24:34.485Z,43.70
2022-10-20T05:25:36.509Z,48.00
2022-10-20T05:26:27.059Z,43.70
2022-10-20T05:27:21.237Z,44.30
2022-10-20T05:28:16.492Z,44.30
2022-10-20T05:29:11.885Z,43.70
2022-10-20T05:30:07.349Z,48.10
2022-10-20T05:31:02.595Z,41.10
2022-10-20T05:31:57.905Z,42.20
2022-10-20T05:32:53.201Z,41.20
2022-10-20T05:33:48.487Z,48.50
2022-10-20T05:34:43.798Z,43.30
2022-10-20T05:35:39.085Z,44.40
2022-10-20T05:36:34.607Z,41.60
2022-10-20T05:37:29.537Z,41.30
2022-10-20T05:38:24.546Z,38.40
2022-10-20T05:39:19.613Z,41.20
2022-10-20T05:40:14.657Z,44.40
2022-10-20T05:41:09.667Z,41.10
2022-10-20T05:42:04.714Z,44.10
2022-10-20T05:42:59.768Z,41.50
2022-10-20T05:43:54.811Z,42.90
2022-10-20T05:44:49.833Z,44.20
2022-10-20T05:45:45.003Z,36.50
2022-10-20T05:46:39.898Z,37.80
2022-10-20T05:47:34.904Z,39.30
2022-10-20T05:48:30.070Z,38.40
2022-10-20T05:49:25.255Z,35.70
2022-10-20T05:50:20.287Z,41.90
2022-10-20T05:51:15.559Z,38.80
2022-10-20T05:52:10.475Z,41.50
2022-10-20T05:53:05.525Z,43.50
2022-10-20T05:54:00.627Z,40.40
2022-10-20T05:54:57.054Z,40.80
2022-10-20T05:55:52.427Z,44.10
2022-10-20T05:56:47.771Z,40.40
2022-10-20T05:57:43.137Z,43.50
2022-10-20T05:58:38.749Z,40.00
2022-10-20T05:59:33.967Z,46.20
2022-10-20T06:00:29.324Z,45.30
2022-10-20T06:01:24.848Z,43.10
2022-10-20T06:02:20.067Z,34.50
2022-10-20T06:03:17.557Z,41.10
2022-10-20T06:04:10.906Z,38.60
2022-10-20T06:05:06.298Z,42.30
2022-10-20T06:06:01.843Z,46.30
2022-10-20T06:06:57.145Z,41.80
2022-10-20T06:07:56.625Z,45.90
2022-10-20T06:08:52.024Z,46.80
2022-10-20T06:09:47.447Z,48.10
2022-10-20T06:10:42.853Z,46.40
2022-10-20T06:11:39.497Z,41.10
2022-10-20T06:12:34.101Z,42.40
2022-10-20T06:13:29.200Z,43.90
2022-10-20T06:14:24.609Z,42.90
2022-10-20T06:15:19.988Z,44.70
2022-10-20T06:16:15.404Z,54.00
2022-10-20T06:17:10.813Z,43.70
2022-10-20T06:18:06.194Z,45.20
2022-10-20T06:19:01.662Z,49.90
2022-10-20T06:19:57.039Z,46.80
2022-10-20T06:20:52.592Z,47.80
2022-10-20T06:21:48.975Z,43.50
2022-10-20T06:22:42.680Z,48.10
2022-10-20T06:23:37.700Z,51.00
2022-10-20T06:24:32.802Z,53.20
2022-10-20T06:25:27.809Z,47.70
2022-10-20T06:26:22.845Z,42.00
2022-10-20T06:27:17.857Z,40.30
2022-10-20T06:28:12.878Z,44.40
2022-10-20T06:29:07.987Z,41.10
2022-10-20T06:30:02.965Z,43.70
2022-10-20T06:30:59.983Z,41.90
2022-10-20T06:31:55.027Z,42.00
2022-10-20T06:32:50.030Z,40.70
2022-10-20T06:33:45.066Z,39.90
2022-10-20T06:34:40.062Z,38.90
2022-10-20T06:35:35.188Z,41.80
2022-10-20T06:36:30.087Z,42.10
2022-10-20T06:37:25.104Z,43.50
2022-10-20T06:38:20.149Z,42.20
2022-10-20T06:39:15.203Z,42.90
2022-10-20T06:40:10.253Z,44.70
2022-10-20T06:41:05.302Z,42.50
2022-10-20T06:42:00.732Z,41.10
2022-10-20T06:42:57.312Z,39.90
2022-10-20T06:43:52.752Z,39.30
2022-10-20T06:44:48.380Z,41.90
2022-10-20T06:45:44.000Z,39.40
2022-10-20T06:46:39.315Z,46.40
2022-10-20T06:47:34.718Z,42.00
2022-10-20T06:48:29.385Z,40.60
2022-10-20T06:49:24.458Z,45.60
2022-10-20T06:50:19.559Z,44.50
2022-10-20T06:51:14.573Z,44.40
2022-10-20T06:53:04.609Z,45.40
2022-10-20T06:53:59.650Z,43.50
2022-10-20T06:54:54.697Z,44.50
2022-10-20T06:55:49.767Z,47.40
2022-10-20T06:56:44.826Z,41.90
2022-10-20T06:57:40.406Z,46.00
2022-10-20T06:58:35.716Z,45.50
2022-10-20T06:59:31.145Z,48.00
2022-10-20T07:00:26.632Z,46.90
2022-10-20T07:01:22.130Z,47.40
2022-10-20T07:02:17.562Z,46.30
2022-10-20T07:03:13.011Z,48.70
2022-10-20T07:04:08.454Z,43.60
2022-10-20T07:05:03.906Z,45.00
2022-10-20T07:05:59.391Z,39.60
2022-10-20T07:06:54.834Z,39.50
2022-10-20T07:07:50.419Z,39.30
2022-10-20T07:08:45.861Z,40.20
2022-10-20T07:09:41.144Z,40.20
2022-10-20T07:10:36.264Z,38.50
2022-10-20T07:11:31.351Z,38.00
2022-10-20T07:12:26.426Z,35.80
2022-10-20T07:13:21.583Z,34.50
2022-10-20T07:14:16.672Z,40.40
2022-10-20T07:15:11.759Z,47.60
2022-10-20T07:16:06.875Z,43.50
2022-10-20T07:17:02.092Z,43.20
2022-10-20T07:17:57.150Z,42.60
2022-10-20T07:18:52.106Z,38.40
2022-10-20T07:19:47.182Z,43.00
2022-10-20T07:20:42.275Z,47.80
2022-10-20T07:21:40.196Z,41.00
2022-10-20T07:22:32.553Z,39.20
2022-10-20T07:23:29.601Z,40.10
2022-10-20T07:24:25.101Z,36.40
2022-10-20T07:25:20.629Z,40.10
2022-10-20T07:26:16.049Z,41.10
2022-10-20T07:27:11.519Z,44.20
2022-10-20T07:28:07.056Z,41.30
2022-10-20T07:29:02.471Z,43.00
2022-10-20T07:29:57.969Z,41.20
2022-10-20T07:30:53.483Z,35.00
2022-10-20T07:31:48.985Z,44.10
2022-10-20T07:32:44.542Z,41.60
2022-10-20T07:33:40.065Z,46.60
2022-10-20T07:34:35.583Z,41.80
2022-10-20T07:35:31.138Z,39.90
2022-10-20T07:36:26.426Z,41.60
2022-10-20T07:37:21.511Z,38.40
2022-10-20T07:38:16.606Z,36.40
2022-10-20T07:39:11.612Z,36.90
2022-10-20T07:40:06.582Z,35.60
2022-10-20T07:41:07.663Z,35.70
2022-10-20T07:42:03.185Z,36.00
2022-10-20T07:42:58.725Z,36.20
2022-10-20T07:43:54.643Z,36.40
2022-10-20T07:44:50.016Z,36.00
2022-10-20T07:45:45.518Z,34.00
2022-10-20T07:46:41.998Z,35.00
2022-10-20T07:47:38.322Z,33.70
2022-10-20T07:48:33.238Z,34.70
2022-10-20T07:49:44.890Z,35.40
2022-10-20T07:50:25.708Z,34.70
2022-10-20T07:51:20.268Z,34.00
2022-10-20T07:52:16.056Z,36.00
2022-10-20T07:53:11.586Z,40.70
2022-10-20T07:54:07.112Z,37.10
2022-10-20T07:55:12.275Z,36.20
2022-10-20T07:55:59.385Z,39.40
2022-10-20T07:56:54.093Z,39.60
2022-10-20T07:57:49.594Z,40.70
2022-10-20T07:58:45.083Z,39.60
2022-10-20T07:59:40.936Z,37.70
2022-10-20T08:00:36.476Z,38.80
2022-10-20T08:01:32.085Z,38.20
2022-10-20T08:02:28.357Z,36.50
2022-10-20T08:03:23.807Z,37.40
2022-10-20T08:04:19.746Z,40.30
2022-10-20T08:05:15.319Z,39.60
2022-10-20T08:06:10.747Z,36.60
2022-10-20T08:07:06.541Z,34.30
2022-10-20T08:08:02.054Z,41.60
2022-10-20T08:08:57.986Z,39.90
2022-10-20T08:09:53.413Z,36.40
2022-10-20T08:10:48.906Z,40.70
2022-10-20T08:11:44.821Z,41.10
2022-10-20T08:12:40.218Z,41.50
2022-10-20T08:13:35.741Z,40.80
2022-10-20T08:14:31.966Z,41.30
2022-10-20T08:15:27.438Z,38.50
2022-10-20T08:16:25.488Z,39.10
2022-10-20T08:17:18.850Z,38.40
2022-10-20T08:18:14.984Z,42.60
2022-10-20T08:19:17.449Z,38.40
2022-10-20T08:20:10.471Z,41.10
2022-10-20T08:21:01.398Z,40.50
2022-10-20T08:21:56.878Z,42.10
2022-10-20T08:22:52.372Z,37.30
2022-10-20T08:23:48.215Z,43.70
2022-10-20T08:24:43.703Z,41.10
2022-10-20T08:25:39.356Z,39.70
2022-10-20T08:26:35.580Z,41.00
2022-10-20T08:27:31.016Z,39.10
2022-10-20T08:28:27.125Z,35.70
2022-10-20T08:29:22.357Z,40.70
2022-10-20T08:30:25.046Z,40.20
2022-10-20T08:31:14.506Z,36.90
2022-10-20T08:32:09.062Z,36.50
2022-10-20T08:33:05.386Z,35.60
2022-10-20T08:34:00.333Z,39.60
2022-10-20T08:34:55.950Z,38.40
2022-10-20T08:35:51.850Z,36.00
2022-10-20T08:36:47.463Z,38.00
2022-10-20T08:37:42.961Z,40.10
2022-10-20T08:38:39.330Z,38.90
2022-10-20T08:39:34.804Z,39.80
2022-10-20T08:40:30.713Z,31.50
2022-10-20T08:41:27.095Z,37.30
2022-10-20T08:42:21.768Z,43.60
2022-10-20T08:43:17.244Z,38.20
2022-10-20T08:44:12.749Z,35.70
2022-10-20T08:45:09.082Z,41.40
2022-10-20T08:46:04.591Z,46.50
2022-10-20T08:47:00.497Z,40.00
2022-10-20T08:48:00.166Z,42.40
2022-10-20T08:48:55.706Z,50.10
2022-10-20T08:49:51.210Z,43.00
2022-10-20T08:50:46.943Z,46.20
2022-10-20T08:51:42.451Z,48.40
2022-10-20T08:52:37.922Z,45.40
2022-10-20T08:53:34.637Z,45.60
2022-10-20T08:54:30.200Z,46.90
2022-10-20T08:55:25.815Z,59.20
2022-10-20T08:56:21.332Z,51.50
2022-10-20T08:57:16.743Z,47.00
2022-10-20T08:58:12.811Z,46.70
2022-10-20T08:59:08.576Z,48.90
2022-10-20T09:00:08.110Z,50.80
2022-10-20T09:01:00.325Z,46.00
2022-10-20T09:01:55.218Z,44.10
2022-10-20T09:02:50.456Z,44.90
2022-10-20T09:03:45.481Z,43.60
2022-10-20T09:04:40.517Z,44.60
2022-10-20T09:05:35.570Z,41.00
2022-10-20T09:06:30.626Z,42.90
2022-10-20T09:07:25.751Z,45.40
2022-10-20T09:08:20.858Z,49.20
2022-10-20T09:09:15.961Z,45.30
2022-10-20T09:10:11.060Z,41.30
2022-10-20T09:11:08.593Z,44.50
2022-10-20T09:12:03.579Z,45.00
2022-10-20T09:12:58.637Z,46.40
2022-10-20T09:13:53.745Z,39.20
2022-10-20T09:14:48.702Z,44.00
2022-10-20T09:15:43.818Z,44.10
2022-10-20T09:16:58.603Z,46.80
2022-10-20T09:17:35.235Z,43.70
2022-10-20T09:18:29.078Z,40.50
2022-10-20T09:19:24.166Z,46.10
2022-10-20T09:20:20.384Z,39.10
2022-10-20T09:21:15.759Z,53.20
2022-10-20T09:22:11.659Z,44.40
2022-10-20T09:23:16.517Z,38.80
2022-10-20T09:24:04.128Z,36.50
2022-10-20T09:24:58.664Z,33.60
2022-10-20T09:25:54.588Z,37.80
2022-10-20T09:27:05.498Z,41.00
2022-10-20T09:27:46.925Z,38.80
2022-10-20T09:28:56.180Z,39.10
2022-10-20T09:29:38.303Z,45.10
2022-10-20T09:30:32.742Z,37.80
2022-10-20T09:31:28.273Z,42.10
2022-10-20T09:33:20.429Z,50.90
2022-10-20T09:34:15.145Z,46.80
2022-10-20T09:35:10.524Z,53.20
2022-10-20T09:36:06.006Z,48.00
2022-10-20T09:37:01.882Z,55.30
2022-10-20T09:37:57.356Z,51.40
2022-10-20T09:38:52.858Z,53.20
2022-10-20T09:39:54.137Z,53.20
2022-10-20T09:40:45.601Z,47.50
2022-10-20T09:41:40.314Z,56.70
2022-10-20T09:42:35.980Z,56.40
2022-10-20T09:43:31.448Z,61.70
2022-10-20T09:44:27.250Z,57.40
2022-10-20T09:45:22.730Z,50.90
2022-10-20T09:46:18.416Z,53.20
2022-10-20T09:47:13.932Z,50.80
2022-10-20T09:48:09.413Z,50.40
2022-10-20T09:49:05.226Z,54.90
2022-10-20T09:50:01.045Z,51.80
2022-10-20T09:50:56.251Z,56.20
2022-10-20T09:52:48.559Z,48.30
2022-10-20T09:53:44.368Z,45.50
2022-10-20T09:54:39.875Z,46.00
2022-10-20T09:55:35.366Z,41.50
2022-10-20T09:56:31.174Z,42.00
2022-10-20T09:57:26.713Z,41.90
2022-10-20T09:58:22.487Z,44.70
2022-10-20T09:59:17.879Z,41.00
2022-10-20T10:00:35.484Z,38.40
2022-10-20T10:01:10.157Z,39.80
2022-10-20T10:02:04.672Z,37.30
2022-10-20T10:03:00.328Z,38.10
2022-10-20T10:03:56.419Z,36.50
2022-10-20T10:04:51.922Z,38.70
2022-10-20T10:05:47.704Z,36.90
2022-10-20T10:06:43.212Z,41.00
2022-10-20T10:07:38.587Z,43.70
2022-10-20T10:08:34.614Z,41.90
2022-10-20T10:09:29.964Z,43.50
2022-10-20T10:10:25.465Z,42.20
2022-10-20T10:11:21.000Z,46.70
2022-10-20T10:12:16.649Z,42.60
2022-10-20T10:13:12.122Z,40.30
2022-10-20T10:14:07.674Z,39.30
2022-10-20T10:15:03.846Z,45.20
2022-10-20T10:15:59.251Z,38.30
2022-10-20T10:16:55.017Z,37.80
2022-10-20T10:17:50.507Z,40.50
2022-10-20T10:18:48.485Z,37.10
2022-10-20T10:19:41.923Z,45.80
2022-10-20T10:20:37.427Z,40.00
2022-10-20T10:21:33.194Z,41.90
2022-10-20T10:22:28.688Z,34.90
2022-10-20T10:23:24.217Z,29.40
2022-10-20T10:24:20.168Z,35.00
2022-10-20T10:25:15.537Z,45.80
2022-10-20T10:26:11.043Z,43.20
2022-10-20T10:27:07.482Z,52.00
2022-10-20T10:28:02.893Z,54.80
2022-10-20T10:28:58.397Z,56.20
2022-10-20T10:29:53.927Z,53.00
2022-10-20T10:30:50.149Z,57.10
2022-10-20T10:31:44.402Z,49.90
2022-10-20T10:32:39.532Z,51.60
2022-10-20T10:33:34.598Z,47.70
2022-10-20T10:34:29.828Z,53.00
2022-10-20T10:35:25.171Z,49.90
2022-10-20T10:36:19.845Z,51.40
2022-10-20T10:37:15.011Z,44.70
2022-10-20T10:38:10.036Z,47.00
2022-10-20T10:39:07.599Z,48.60
2022-10-20T10:40:02.713Z,47.40
2022-10-20T10:40:57.699Z,55.40
2022-10-20T10:41:52.823Z,53.80
2022-10-20T10:42:47.768Z,60.30
2022-10-20T10:43:46.235Z,60.90
2022-10-20T10:44:39.466Z,59.10
2022-10-20T10:45:33.145Z,60.50
2022-10-20T10:46:28.113Z,60.90
2022-10-20T10:47:23.222Z,58.70
2022-10-20T10:48:18.344Z,44.60
2022-10-20T10:49:13.590Z,46.20
2022-10-20T10:50:08.705Z,38.90
2022-10-20T10:51:03.705Z,38.20
2022-10-20T10:51:58.806Z,41.50
2022-10-20T10:52:53.846Z,36.80
2022-10-20T10:53:48.835Z,39.20
2022-10-20T10:54:43.983Z,41.70
2022-10-20T10:55:54.386Z,42.40
2022-10-20T10:56:34.943Z,48.80
2022-10-20T10:57:28.978Z,45.10
2022-10-20T10:58:24.049Z,49.20
2022-10-20T10:59:19.139Z,50.50
2022-10-20T11:00:14.204Z,49.80
2022-10-20T11:01:09.197Z,49.10
2022-10-20T11:02:04.296Z,54.80
2022-10-20T11:02:59.372Z,58.60
2022-10-20T11:03:54.476Z,59.80
2022-10-20T11:04:50.112Z,59.50
2022-10-20T11:05:45.223Z,59.70
2022-10-20T11:06:40.199Z,67.50
2022-10-20T11:07:35.499Z,60.60
2022-10-20T11:08:30.218Z,62.90
2022-10-20T11:09:25.207Z,66.20
2022-10-20T11:10:20.300Z,60.60
2022-10-20T11:11:15.418Z,58.40
2022-10-20T11:12:11.496Z,66.70
2022-10-20T11:13:07.135Z,69.30
2022-10-20T11:14:02.612Z,64.30
2022-10-20T11:14:58.152Z,61.60
2022-10-20T11:15:54.998Z,55.00
2022-10-20T11:16:50.489Z,56.00
2022-10-20T11:17:46.005Z,52.30
2022-10-20T11:18:41.476Z,48.00
2022-10-20T11:19:36.960Z,34.60
2022-10-20T11:20:32.633Z,30.80
2022-10-20T11:21:27.726Z,24.40
2022-10-20T11:22:22.806Z,25.70
2022-10-20T11:23:17.910Z,22.60
2022-10-20T11:24:13.017Z,21.50
2022-10-20T11:25:08.163Z,19.10
2022-10-20T11:26:03.165Z,22.50
2022-10-20T11:26:58.257Z,22.40
2022-10-20T11:27:53.371Z,19.40
2022-10-20T11:28:48.456Z,17.80
2022-10-20T11:29:43.535Z,18.30
2022-10-20T11:30:38.683Z,19.20
2022-10-20T11:31:33.923Z,19.20
2022-10-20T11:32:28.792Z,19.00
2022-10-20T11:33:23.868Z,19.00
2022-10-20T11:34:18.945Z,20.70
2022-10-20T11:35:13.930Z,23.30
2022-10-20T11:36:09.071Z,19.60
2022-10-20T11:37:04.131Z,17.80
2022-10-20T11:37:59.230Z,16.40
2022-10-20T11:38:54.299Z,19.50
2022-10-20T11:39:49.437Z,18.90
2022-10-20T11:40:44.492Z,18.20
2022-10-20T11:41:39.549Z,18.60
2022-10-20T11:42:34.938Z,23.60
2022-10-20T11:43:30.686Z,18.30
2022-10-20T11:44:25.764Z,15.90
2022-10-20T11:45:20.907Z,20.40
2022-10-20T11:46:15.866Z,17.70
2022-10-20T11:47:10.948Z,19.30
2022-10-20T11:48:06.054Z,22.40
2022-10-20T11:49:03.265Z,17.90
2022-10-20T11:49:56.227Z,18.00
2022-10-20T11:50:51.353Z,15.80
2022-10-20T11:51:46.492Z,19.60
2022-10-20T11:52:42.016Z,21.90
2022-10-20T11:53:37.925Z,17.30
2022-10-20T11:54:33.424Z,17.10
2022-10-20T11:55:28.961Z,19.80
2022-10-20T11:56:24.364Z,16.90
2022-10-20T11:57:19.883Z,19.20
2022-10-20T11:58:15.298Z,16.00